sensor_id;sensor_type;location;lat;lon;timestamp;P1;durP1;ratioP1;P2;durP2;ratioP2
45842;SDS011;31563;51.744;8.252;2023-07-31T00:00:57;1.70;;;1.03;;
45842;SDS011;31563;51.744;8.252;2023-07-31T00:03:25;3.40;;;1.23;;
45842;SDS011;31563;51.744;8.252;2023-07-31T00:05:53;1.23;;;0.95;;
45842;SDS011;31563;51.744;8.252;2023-07-31T00:08:21;2.25;;;1.00;;
45842;SDS011;31563;51.744;8.252;2023-07-31T00:10:51;1.52;;;1.20;;
45842;SDS011;31563;51.744;8.252;2023-07-31T00:13:19;3.20;;;1.00;;
45842;SDS011;31563;51.744;8.252;2023-07-31T00:15:48;1.52;;;0.85;;
45842;SDS011;31563;51.744;8.252;2023-07-31T00:18:16;1.55;;;1.08;;
45842;SDS011;31563;51.744;8.252;2023-07-31T00:20:44;2.25;;;1.25;;
45842;SDS011;31563;51.744;8.252;2023-07-31T00:23:12;2.20;;;1.30;;
45842;SDS011;31563;51.744;8.252;2023-07-31T00:25:41;1.45;;;1.15;;
45842;SDS011;31563;51.744;8.252;2023-07-31T00:28:09;1.65;;;1.15;;
45842;SDS011;31563;51.744;8.252;2023-07-31T00:30:37;2.55;;;1.42;;
45842;SDS011;31563;51.744;8.252;2023-07-31T00:33:06;4.55;;;1.67;;
45842;SDS011;31563;51.744;8.252;2023-07-31T00:35:34;4.53;;;1.90;;
45842;SDS011;31563;51.744;8.252;2023-07-31T00:38:02;1.60;;;1.23;;
45842;SDS011;31563;51.744;8.252;2023-07-31T00:40:34;3.13;;;1.73;;
45842;SDS011;31563;51.744;8.252;2023-07-31T00:43:02;2.75;;;1.30;;
45842;SDS011;31563;51.744;8.252;2023-07-31T00:45:30;2.78;;;1.85;;
45842;SDS011;31563;51.744;8.252;2023-07-31T00:47:58;2.40;;;1.33;;
45842;SDS011;31563;51.744;8.252;2023-07-31T00:50:28;2.15;;;1.42;;
45842;SDS011;31563;51.744;8.252;2023-07-31T00:52:56;4.55;;;1.63;;
45842;SDS011;31563;51.744;8.252;2023-07-31T00:55:24;2.45;;;1.35;;
45842;SDS011;31563;51.744;8.252;2023-07-31T00:57:52;2.28;;;1.20;;
45842;SDS011;31563;51.744;8.252;2023-07-31T01:00:22;2.37;;;1.37;;
45842;SDS011;31563;51.744;8.252;2023-07-31T01:02:50;1.55;;;1.05;;
45842;SDS011;31563;51.744;8.252;2023-07-31T01:05:19;1.85;;;0.80;;
45842;SDS011;31563;51.744;8.252;2023-07-31T01:08:07;1.73;;;1.02;;
45842;SDS011;31563;51.744;8.252;2023-07-31T01:10:45;2.10;;;0.93;;
45842;SDS011;31563;51.744;8.252;2023-07-31T01:13:28;1.67;;;1.00;;
45842;SDS011;31563;51.744;8.252;2023-07-31T01:15:56;1.75;;;1.00;;
45842;SDS011;31563;51.744;8.252;2023-07-31T01:18:24;0.90;;;0.60;;
45842;SDS011;31563;51.744;8.252;2023-07-31T01:20:54;1.10;;;0.88;;
45842;SDS011;31563;51.744;8.252;2023-07-31T01:23:41;1.60;;;0.70;;
45842;SDS011;31563;51.744;8.252;2023-07-31T01:26:24;1.15;;;0.70;;
45842;SDS011;31563;51.744;8.252;2023-07-31T01:29:00;1.45;;;0.88;;
45842;SDS011;31563;51.744;8.252;2023-07-31T01:31:30;1.98;;;0.70;;
45842;SDS011;31563;51.744;8.252;2023-07-31T01:33:59;1.38;;;0.60;;
45842;SDS011;31563;51.744;8.252;2023-07-31T01:36:28;1.42;;;0.80;;
45842;SDS011;31563;51.744;8.252;2023-07-31T01:38:57;1.35;;;0.85;;
45842;SDS011;31563;51.744;8.252;2023-07-31T01:41:27;0.90;;;0.60;;
45842;SDS011;31563;51.744;8.252;2023-07-31T01:43:55;1.60;;;0.73;;
45842;SDS011;31563;51.744;8.252;2023-07-31T01:46:23;1.20;;;0.98;;
45842;SDS011;31563;51.744;8.252;2023-07-31T01:48:51;1.65;;;0.52;;
45842;SDS011;31563;51.744;8.252;2023-07-31T01:51:19;1.55;;;0.77;;
45842;SDS011;31563;51.744;8.252;2023-07-31T01:53:47;1.17;;;0.75;;
45842;SDS011;31563;51.744;8.252;2023-07-31T01:56:15;1.30;;;0.82;;
45842;SDS011;31563;51.744;8.252;2023-07-31T01:58:44;1.40;;;0.88;;
45842;SDS011;31563;51.744;8.252;2023-07-31T02:01:11;1.73;;;0.90;;
45842;SDS011;31563;51.744;8.252;2023-07-31T02:03:39;2.22;;;1.15;;
45842;SDS011;31563;51.744;8.252;2023-07-31T02:06:08;2.17;;;0.88;;
45842;SDS011;31563;51.744;8.252;2023-07-31T02:08:36;1.50;;;0.90;;
45842;SDS011;31563;51.744;8.252;2023-07-31T02:11:04;1.02;;;0.70;;
45842;SDS011;31563;51.744;8.252;2023-07-31T02:13:32;1.13;;;0.63;;
45842;SDS011;31563;51.744;8.252;2023-07-31T02:16:01;1.70;;;1.08;;
45842;SDS011;31563;51.744;8.252;2023-07-31T02:18:29;1.70;;;1.10;;
45842;SDS011;31563;51.744;8.252;2023-07-31T02:20:56;2.38;;;1.55;;
45842;SDS011;31563;51.744;8.252;2023-07-31T02:23:24;3.15;;;1.30;;
45842;SDS011;31563;51.744;8.252;2023-07-31T02:25:52;2.15;;;1.30;;
45842;SDS011;31563;51.744;8.252;2023-07-31T02:28:20;3.90;;;1.52;;
45842;SDS011;31563;51.744;8.252;2023-07-31T02:30:49;3.95;;;1.83;;
45842;SDS011;31563;51.744;8.252;2023-07-31T02:33:19;4.68;;;2.45;;
45842;SDS011;31563;51.744;8.252;2023-07-31T02:35:46;4.90;;;2.53;;
45842;SDS011;31563;51.744;8.252;2023-07-31T02:38:14;4.43;;;2.95;;
45842;SDS011;31563;51.744;8.252;2023-07-31T02:40:42;5.60;;;3.15;;
45842;SDS011;31563;51.744;8.252;2023-07-31T02:43:10;7.32;;;3.25;;
45842;SDS011;31563;51.744;8.252;2023-07-31T02:45:38;7.00;;;4.15;;
45842;SDS011;31563;51.744;8.252;2023-07-31T02:48:05;7.40;;;4.22;;
45842;SDS011;31563;51.744;8.252;2023-07-31T02:50:35;6.93;;;3.83;;
45842;SDS011;31563;51.744;8.252;2023-07-31T02:53:02;8.63;;;4.23;;
45842;SDS011;31563;51.744;8.252;2023-07-31T02:55:30;6.72;;;4.10;;
45842;SDS011;31563;51.744;8.252;2023-07-31T02:57:58;11.05;;;4.50;;
45842;SDS011;31563;51.744;8.252;2023-07-31T03:00:26;9.38;;;4.93;;
45842;SDS011;31563;51.744;8.252;2023-07-31T03:02:54;9.93;;;4.97;;
45842;SDS011;31563;51.744;8.252;2023-07-31T03:05:22;7.95;;;4.40;;
45842;SDS011;31563;51.744;8.252;2023-07-31T03:07:51;11.70;;;4.97;;
45842;SDS011;31563;51.744;8.252;2023-07-31T03:10:19;7.87;;;4.33;;
45842;SDS011;31563;51.744;8.252;2023-07-31T03:12:47;8.68;;;4.68;;
45842;SDS011;31563;51.744;8.252;2023-07-31T03:15:15;7.97;;;4.93;;
45842;SDS011;31563;51.744;8.252;2023-07-31T03:17:43;7.95;;;4.78;;
45842;SDS011;31563;51.744;8.252;2023-07-31T03:20:11;8.25;;;4.32;;
45842;SDS011;31563;51.744;8.252;2023-07-31T03:22:39;7.65;;;4.30;;
45842;SDS011;31563;51.744;8.252;2023-07-31T03:25:08;8.23;;;4.40;;
45842;SDS011;31563;51.744;8.252;2023-07-31T03:27:37;8.60;;;4.85;;
45842;SDS011;31563;51.744;8.252;2023-07-31T03:30:05;9.32;;;4.80;;
45842;SDS011;31563;51.744;8.252;2023-07-31T03:32:34;10.87;;;5.13;;
45842;SDS011;31563;51.744;8.252;2023-07-31T03:35:02;6.18;;;4.45;;
45842;SDS011;31563;51.744;8.252;2023-07-31T03:37:31;7.95;;;4.07;;
45842;SDS011;31563;51.744;8.252;2023-07-31T03:39:59;7.93;;;4.35;;
45842;SDS011;31563;51.744;8.252;2023-07-31T03:42:28;8.95;;;4.53;;
45842;SDS011;31563;51.744;8.252;2023-07-31T03:44:56;7.47;;;3.80;;
45842;SDS011;31563;51.744;8.252;2023-07-31T03:47:24;9.73;;;3.78;;
45842;SDS011;31563;51.744;8.252;2023-07-31T03:49:52;7.55;;;4.18;;
45842;SDS011;31563;51.744;8.252;2023-07-31T03:52:20;9.55;;;4.30;;
45842;SDS011;31563;51.744;8.252;2023-07-31T03:54:48;7.53;;;3.47;;
45842;SDS011;31563;51.744;8.252;2023-07-31T03:57:15;8.52;;;4.10;;
45842;SDS011;31563;51.744;8.252;2023-07-31T03:59:44;7.82;;;3.78;;
45842;SDS011;31563;51.744;8.252;2023-07-31T04:02:12;7.67;;;4.00;;
45842;SDS011;31563;51.744;8.252;2023-07-31T04:04:40;7.88;;;3.75;;
45842;SDS011;31563;51.744;8.252;2023-07-31T04:07:08;8.52;;;4.15;;
45842;SDS011;31563;51.744;8.252;2023-07-31T04:09:36;7.63;;;4.78;;
45842;SDS011;31563;51.744;8.252;2023-07-31T04:12:04;9.65;;;4.18;;
45842;SDS011;31563;51.744;8.252;2023-07-31T04:14:32;8.50;;;4.07;;
45842;SDS011;31563;51.744;8.252;2023-07-31T04:17:01;7.63;;;4.30;;
45842;SDS011;31563;51.744;8.252;2023-07-31T04:19:29;8.02;;;4.22;;
45842;SDS011;31563;51.744;8.252;2023-07-31T04:21:57;8.82;;;4.50;;
45842;SDS011;31563;51.744;8.252;2023-07-31T04:24:25;7.70;;;4.65;;
45842;SDS011;31563;51.744;8.252;2023-07-31T04:26:53;9.65;;;4.38;;
45842;SDS011;31563;51.744;8.252;2023-07-31T04:29:21;8.68;;;4.63;;
45842;SDS011;31563;51.744;8.252;2023-07-31T04:31:49;10.60;;;5.00;;
45842;SDS011;31563;51.744;8.252;2023-07-31T04:34:18;10.45;;;4.50;;
45842;SDS011;31563;51.744;8.252;2023-07-31T04:36:46;8.63;;;4.43;;
45842;SDS011;31563;51.744;8.252;2023-07-31T04:39:14;9.70;;;5.20;;
45842;SDS011;31563;51.744;8.252;2023-07-31T04:41:41;9.20;;;4.80;;
45842;SDS011;31563;51.744;8.252;2023-07-31T04:44:09;9.55;;;4.25;;
45842;SDS011;31563;51.744;8.252;2023-07-31T04:46:37;9.60;;;4.85;;
45842;SDS011;31563;51.744;8.252;2023-07-31T04:49:05;10.98;;;4.85;;
45842;SDS011;31563;51.744;8.252;2023-07-31T04:51:35;10.15;;;4.65;;
45842;SDS011;31563;51.744;8.252;2023-07-31T04:54:03;8.83;;;4.50;;
45842;SDS011;31563;51.744;8.252;2023-07-31T04:56:31;9.55;;;4.55;;
45842;SDS011;31563;51.744;8.252;2023-07-31T04:58:58;11.32;;;4.78;;
45842;SDS011;31563;51.744;8.252;2023-07-31T05:01:26;13.18;;;4.80;;
45842;SDS011;31563;51.744;8.252;2023-07-31T05:03:54;9.02;;;4.45;;
45842;SDS011;31563;51.744;8.252;2023-07-31T05:06:22;9.07;;;4.55;;
45842;SDS011;31563;51.744;8.252;2023-07-31T05:08:51;7.72;;;3.97;;
45842;SDS011;31563;51.744;8.252;2023-07-31T05:11:19;9.93;;;4.83;;
45842;SDS011;31563;51.744;8.252;2023-07-31T05:13:47;9.32;;;4.97;;
45842;SDS011;31563;51.744;8.252;2023-07-31T05:16:15;9.80;;;5.03;;
45842;SDS011;31563;51.744;8.252;2023-07-31T05:18:42;9.60;;;4.00;;
45842;SDS011;31563;51.744;8.252;2023-07-31T05:21:10;9.20;;;4.68;;
45842;SDS011;31563;51.744;8.252;2023-07-31T05:23:38;9.13;;;4.28;;
45842;SDS011;31563;51.744;8.252;2023-07-31T05:26:07;8.45;;;4.63;;
45842;SDS011;31563;51.744;8.252;2023-07-31T05:28:36;8.15;;;4.70;;
45842;SDS011;31563;51.744;8.252;2023-07-31T05:31:04;8.85;;;4.47;;
45842;SDS011;31563;51.744;8.252;2023-07-31T05:33:32;8.38;;;3.58;;
45842;SDS011;31563;51.744;8.252;2023-07-31T05:36:00;9.43;;;4.30;;
45842;SDS011;31563;51.744;8.252;2023-07-31T05:38:28;8.10;;;4.03;;
45842;SDS011;31563;51.744;8.252;2023-07-31T05:40:56;9.95;;;4.10;;
45842;SDS011;31563;51.744;8.252;2023-07-31T05:43:25;8.50;;;4.28;;
45842;SDS011;31563;51.744;8.252;2023-07-31T05:45:53;8.67;;;4.53;;
45842;SDS011;31563;51.744;8.252;2023-07-31T05:48:21;9.32;;;4.32;;
45842;SDS011;31563;51.744;8.252;2023-07-31T05:50:49;7.60;;;3.72;;
45842;SDS011;31563;51.744;8.252;2023-07-31T05:53:17;8.00;;;4.30;;
45842;SDS011;31563;51.744;8.252;2023-07-31T05:55:44;10.20;;;4.30;;
45842;SDS011;31563;51.744;8.252;2023-07-31T05:58:12;8.55;;;4.63;;
45842;SDS011;31563;51.744;8.252;2023-07-31T06:00:42;8.35;;;4.30;;
45842;SDS011;31563;51.744;8.252;2023-07-31T06:03:10;7.17;;;3.90;;
45842;SDS011;31563;51.744;8.252;2023-07-31T06:05:38;9.45;;;4.32;;
45842;SDS011;31563;51.744;8.252;2023-07-31T06:08:05;9.18;;;4.82;;
45842;SDS011;31563;51.744;8.252;2023-07-31T06:10:33;9.85;;;4.55;;
45842;SDS011;31563;51.744;8.252;2023-07-31T06:13:02;10.10;;;4.95;;
45842;SDS011;31563;51.744;8.252;2023-07-31T06:15:30;11.13;;;4.90;;
45842;SDS011;31563;51.744;8.252;2023-07-31T06:17:59;9.65;;;4.32;;
45842;SDS011;31563;51.744;8.252;2023-07-31T06:20:28;10.13;;;5.07;;
45842;SDS011;31563;51.744;8.252;2023-07-31T06:22:56;9.55;;;4.55;;
45842;SDS011;31563;51.744;8.252;2023-07-31T06:25:24;9.43;;;4.57;;
45842;SDS011;31563;51.744;8.252;2023-07-31T06:27:52;9.70;;;4.38;;
45842;SDS011;31563;51.744;8.252;2023-07-31T06:30:20;7.57;;;4.50;;
45842;SDS011;31563;51.744;8.252;2023-07-31T06:32:47;7.88;;;4.38;;
45842;SDS011;31563;51.744;8.252;2023-07-31T06:35:17;7.15;;;4.20;;
45842;SDS011;31563;51.744;8.252;2023-07-31T06:37:45;8.50;;;4.80;;
45842;SDS011;31563;51.744;8.252;2023-07-31T06:40:12;10.88;;;5.35;;
45842;SDS011;31563;51.744;8.252;2023-07-31T06:42:40;9.40;;;4.68;;
45842;SDS011;31563;51.744;8.252;2023-07-31T06:45:09;7.35;;;4.22;;
45842;SDS011;31563;51.744;8.252;2023-07-31T06:47:37;7.60;;;3.95;;
45842;SDS011;31563;51.744;8.252;2023-07-31T06:50:05;11.00;;;5.05;;
45842;SDS011;31563;51.744;8.252;2023-07-31T06:52:35;9.18;;;4.03;;
45842;SDS011;31563;51.744;8.252;2023-07-31T06:55:04;11.63;;;4.57;;
45842;SDS011;31563;51.744;8.252;2023-07-31T06:57:44;8.90;;;4.70;;
45842;SDS011;31563;51.744;8.252;2023-07-31T07:00:12;10.15;;;4.25;;
45842;SDS011;31563;51.744;8.252;2023-07-31T07:02:40;10.98;;;5.00;;
45842;SDS011;31563;51.744;8.252;2023-07-31T07:05:08;11.18;;;4.80;;
45842;SDS011;31563;51.744;8.252;2023-07-31T07:07:38;5.80;;;3.88;;
45842;SDS011;31563;51.744;8.252;2023-07-31T07:10:06;6.95;;;3.53;;
45842;SDS011;31563;51.744;8.252;2023-07-31T07:12:35;7.30;;;3.60;;
45842;SDS011;31563;51.744;8.252;2023-07-31T07:15:03;8.10;;;4.40;;
45842;SDS011;31563;51.744;8.252;2023-07-31T07:17:31;6.78;;;3.75;;
45842;SDS011;31563;51.744;8.252;2023-07-31T07:20:00;8.68;;;4.63;;
45842;SDS011;31563;51.744;8.252;2023-07-31T07:22:29;8.68;;;4.97;;
45842;SDS011;31563;51.744;8.252;2023-07-31T07:24:58;6.90;;;4.03;;
45842;SDS011;31563;51.744;8.252;2023-07-31T07:27:26;9.02;;;4.60;;
45842;SDS011;31563;51.744;8.252;2023-07-31T07:29:54;8.55;;;4.40;;
45842;SDS011;31563;51.744;8.252;2023-07-31T07:32:22;9.57;;;5.25;;
45842;SDS011;31563;51.744;8.252;2023-07-31T07:34:50;9.18;;;4.57;;
45842;SDS011;31563;51.744;8.252;2023-07-31T07:37:18;7.13;;;4.50;;
45842;SDS011;31563;51.744;8.252;2023-07-31T07:39:46;8.75;;;4.47;;
45842;SDS011;31563;51.744;8.252;2023-07-31T07:42:16;10.50;;;4.78;;
45842;SDS011;31563;51.744;8.252;2023-07-31T07:44:43;8.55;;;4.32;;
45842;SDS011;31563;51.744;8.252;2023-07-31T07:47:12;6.38;;;4.25;;
45842;SDS011;31563;51.744;8.252;2023-07-31T07:49:40;8.25;;;4.60;;
45842;SDS011;31563;51.744;8.252;2023-07-31T07:52:11;9.73;;;4.97;;
45842;SDS011;31563;51.744;8.252;2023-07-31T07:54:39;5.72;;;4.13;;
45842;SDS011;31563;51.744;8.252;2023-07-31T07:57:07;9.20;;;5.00;;
45842;SDS011;31563;51.744;8.252;2023-07-31T07:59:36;9.88;;;5.35;;
45842;SDS011;31563;51.744;8.252;2023-07-31T08:02:04;8.17;;;5.13;;
45842;SDS011;31563;51.744;8.252;2023-07-31T08:04:32;11.98;;;6.43;;
45842;SDS011;31563;51.744;8.252;2023-07-31T08:07:00;10.88;;;6.25;;
45842;SDS011;31563;51.744;8.252;2023-07-31T08:09:28;9.02;;;5.22;;
45842;SDS011;31563;51.744;8.252;2023-07-31T08:11:56;6.50;;;4.63;;
45842;SDS011;31563;51.744;8.252;2023-07-31T08:14:28;7.00;;;5.13;;
45842;SDS011;31563;51.744;8.252;2023-07-31T08:17:00;8.55;;;5.10;;
45842;SDS011;31563;51.744;8.252;2023-07-31T08:19:29;8.32;;;5.38;;
45842;SDS011;31563;51.744;8.252;2023-07-31T08:21:57;7.10;;;5.15;;
45842;SDS011;31563;51.744;8.252;2023-07-31T08:24:25;8.82;;;4.93;;
45842;SDS011;31563;51.744;8.252;2023-07-31T08:26:54;8.40;;;5.05;;
45842;SDS011;31563;51.744;8.252;2023-07-31T08:29:22;5.88;;;4.40;;
45842;SDS011;31563;51.744;8.252;2023-07-31T08:31:50;6.20;;;4.82;;
45842;SDS011;31563;51.744;8.252;2023-07-31T08:34:19;8.88;;;4.75;;
45842;SDS011;31563;51.744;8.252;2023-07-31T08:36:47;5.47;;;4.65;;
45842;SDS011;31563;51.744;8.252;2023-07-31T08:39:15;6.80;;;3.88;;
45842;SDS011;31563;51.744;8.252;2023-07-31T08:41:43;7.88;;;4.28;;
45842;SDS011;31563;51.744;8.252;2023-07-31T08:44:11;6.60;;;3.90;;
45842;SDS011;31563;51.744;8.252;2023-07-31T08:46:40;5.90;;;4.25;;
45842;SDS011;31563;51.744;8.252;2023-07-31T08:49:09;6.70;;;3.97;;
45842;SDS011;31563;51.744;8.252;2023-07-31T08:51:39;7.22;;;4.10;;
45842;SDS011;31563;51.744;8.252;2023-07-31T08:54:09;5.90;;;4.35;;
45842;SDS011;31563;51.744;8.252;2023-07-31T08:56:37;7.63;;;4.80;;
45842;SDS011;31563;51.744;8.252;2023-07-31T08:59:07;5.63;;;3.67;;
45842;SDS011;31563;51.744;8.252;2023-07-31T09:01:38;6.97;;;3.58;;
45842;SDS011;31563;51.744;8.252;2023-07-31T09:04:10;4.93;;;3.60;;
45842;SDS011;31563;51.744;8.252;2023-07-31T09:06:41;6.35;;;3.70;;
45842;SDS011;31563;51.744;8.252;2023-07-31T09:09:10;5.03;;;3.55;;
45842;SDS011;31563;51.744;8.252;2023-07-31T09:11:39;9.63;;;4.00;;
45842;SDS011;31563;51.744;8.252;2023-07-31T09:14:08;7.03;;;3.50;;
45842;SDS011;31563;51.744;8.252;2023-07-31T09:16:50;7.25;;;3.90;;
45842;SDS011;31563;51.744;8.252;2023-07-31T09:19:26;7.40;;;4.18;;
45842;SDS011;31563;51.744;8.252;2023-07-31T09:21:56;6.88;;;3.85;;
45842;SDS011;31563;51.744;8.252;2023-07-31T09:24:25;7.28;;;3.65;;
45842;SDS011;31563;51.744;8.252;2023-07-31T09:26:54;6.97;;;3.67;;
45842;SDS011;31563;51.744;8.252;2023-07-31T09:29:22;6.20;;;3.40;;
45842;SDS011;31563;51.744;8.252;2023-07-31T09:31:50;7.07;;;3.55;;
45842;SDS011;31563;51.744;8.252;2023-07-31T09:34:19;5.20;;;3.10;;
45842;SDS011;31563;51.744;8.252;2023-07-31T09:36:47;4.45;;;3.08;;
45842;SDS011;31563;51.744;8.252;2023-07-31T09:39:18;4.47;;;2.95;;
45842;SDS011;31563;51.744;8.252;2023-07-31T09:41:47;5.88;;;3.10;;
45842;SDS011;31563;51.744;8.252;2023-07-31T09:44:20;5.80;;;3.05;;
45842;SDS011;31563;51.744;8.252;2023-07-31T09:46:48;4.85;;;2.63;;
45842;SDS011;31563;51.744;8.252;2023-07-31T09:49:16;6.03;;;3.05;;
45842;SDS011;31563;51.744;8.252;2023-07-31T09:51:44;3.28;;;2.47;;
45842;SDS011;31563;51.744;8.252;2023-07-31T09:54:13;5.28;;;2.53;;
45842;SDS011;31563;51.744;8.252;2023-07-31T09:56:44;4.25;;;2.88;;
45842;SDS011;31563;51.744;8.252;2023-07-31T09:59:14;4.50;;;2.58;;
45842;SDS011;31563;51.744;8.252;2023-07-31T10:01:47;2.70;;;2.28;;
45842;SDS011;31563;51.744;8.252;2023-07-31T10:04:16;3.30;;;2.45;;
45842;SDS011;31563;51.744;8.252;2023-07-31T10:06:49;3.42;;;2.10;;
45842;SDS011;31563;51.744;8.252;2023-07-31T10:09:18;4.15;;;2.13;;
45842;SDS011;31563;51.744;8.252;2023-07-31T10:11:51;2.67;;;2.05;;
45842;SDS011;31563;51.744;8.252;2023-07-31T10:14:23;3.08;;;2.20;;
45842;SDS011;31563;51.744;8.252;2023-07-31T10:16:52;4.10;;;2.33;;
45842;SDS011;31563;51.744;8.252;2023-07-31T10:19:20;2.63;;;2.00;;
45842;SDS011;31563;51.744;8.252;2023-07-31T10:21:49;3.33;;;1.85;;
45842;SDS011;31563;51.744;8.252;2023-07-31T10:24:17;3.15;;;1.80;;
45842;SDS011;31563;51.744;8.252;2023-07-31T10:26:45;5.07;;;1.92;;
45842;SDS011;31563;51.744;8.252;2023-07-31T10:29:17;2.92;;;1.50;;
45842;SDS011;31563;51.744;8.252;2023-07-31T10:31:46;3.38;;;1.85;;
45842;SDS011;31563;51.744;8.252;2023-07-31T10:34:15;2.25;;;1.70;;
45842;SDS011;31563;51.744;8.252;2023-07-31T10:36:44;3.58;;;1.65;;
45842;SDS011;31563;51.744;8.252;2023-07-31T10:42:09;1.88;;;1.60;;
45842;SDS011;31563;51.744;8.252;2023-07-31T10:44:39;2.00;;;1.50;;
45842;SDS011;31563;51.744;8.252;2023-07-31T10:47:14;1.73;;;1.27;;
45842;SDS011;31563;51.744;8.252;2023-07-31T10:49:44;1.80;;;1.23;;
45842;SDS011;31563;51.744;8.252;2023-07-31T10:52:15;2.40;;;1.50;;
45842;SDS011;31563;51.744;8.252;2023-07-31T10:57:44;2.55;;;1.20;;
45842;SDS011;31563;51.744;8.252;2023-07-31T11:00:21;2.75;;;1.90;;
45842;SDS011;31563;51.744;8.252;2023-07-31T11:02:58;1.60;;;1.27;;
45842;SDS011;31563;51.744;8.252;2023-07-31T11:05:44;2.28;;;1.20;;
45842;SDS011;31563;51.744;8.252;2023-07-31T11:08:17;4.22;;;1.45;;
45842;SDS011;31563;51.744;8.252;2023-07-31T11:10:47;1.55;;;1.00;;
45842;SDS011;31563;51.744;8.252;2023-07-31T11:13:16;2.00;;;1.20;;
45842;SDS011;31563;51.744;8.252;2023-07-31T11:15:46;2.33;;;1.15;;
45842;SDS011;31563;51.744;8.252;2023-07-31T11:18:14;3.38;;;1.38;;
45842;SDS011;31563;51.744;8.252;2023-07-31T11:20:43;3.87;;;1.00;;
45842;SDS011;31563;51.744;8.252;2023-07-31T11:23:11;1.60;;;1.20;;
45842;SDS011;31563;51.744;8.252;2023-07-31T11:25:39;1.42;;;1.10;;
45842;SDS011;31563;51.744;8.252;2023-07-31T11:28:08;2.65;;;1.40;;
45842;SDS011;31563;51.744;8.252;2023-07-31T11:33:08;2.78;;;1.10;;
45842;SDS011;31563;51.744;8.252;2023-07-31T11:35:41;1.55;;;1.23;;
45842;SDS011;31563;51.744;8.252;2023-07-31T11:38:11;1.73;;;0.90;;
45842;SDS011;31563;51.744;8.252;2023-07-31T11:40:43;1.67;;;0.77;;
45842;SDS011;31563;51.744;8.252;2023-07-31T11:43:11;3.90;;;1.23;;
45842;SDS011;31563;51.744;8.252;2023-07-31T11:45:44;2.08;;;0.90;;
45842;SDS011;31563;51.744;8.252;2023-07-31T11:48:19;2.25;;;1.05;;
45842;SDS011;31563;51.744;8.252;2023-07-31T11:50:48;1.90;;;1.10;;
45842;SDS011;31563;51.744;8.252;2023-07-31T11:53:18;2.13;;;1.13;;
45842;SDS011;31563;51.744;8.252;2023-07-31T11:55:49;1.27;;;0.90;;
45842;SDS011;31563;51.744;8.252;2023-07-31T11:58:18;1.52;;;1.10;;
45842;SDS011;31563;51.744;8.252;2023-07-31T12:00:47;1.33;;;0.90;;
45842;SDS011;31563;51.744;8.252;2023-07-31T12:03:16;2.17;;;1.10;;
45842;SDS011;31563;51.744;8.252;2023-07-31T12:05:48;1.17;;;0.80;;
45842;SDS011;31563;51.744;8.252;2023-07-31T12:08:16;1.30;;;0.95;;
45842;SDS011;31563;51.744;8.252;2023-07-31T12:10:43;1.65;;;0.98;;
45842;SDS011;31563;51.744;8.252;2023-07-31T12:15:47;1.38;;;1.13;;
45842;SDS011;31563;51.744;8.252;2023-07-31T12:18:18;1.60;;;1.20;;
45842;SDS011;31563;51.744;8.252;2023-07-31T12:20:49;1.60;;;1.05;;
45842;SDS011;31563;51.744;8.252;2023-07-31T12:23:22;1.55;;;0.80;;
45842;SDS011;31563;51.744;8.252;2023-07-31T12:26:00;2.05;;;1.10;;
45842;SDS011;31563;51.744;8.252;2023-07-31T12:28:29;1.58;;;1.17;;
45842;SDS011;31563;51.744;8.252;2023-07-31T12:30:57;1.42;;;1.02;;
45842;SDS011;31563;51.744;8.252;2023-07-31T12:33:30;2.08;;;1.13;;
45842;SDS011;31563;51.744;8.252;2023-07-31T12:36:00;2.33;;;1.00;;
45842;SDS011;31563;51.744;8.252;2023-07-31T12:38:29;2.05;;;1.10;;
45842;SDS011;31563;51.744;8.252;2023-07-31T12:40:57;3.97;;;1.58;;
45842;SDS011;31563;51.744;8.252;2023-07-31T12:43:25;1.88;;;1.10;;
45842;SDS011;31563;51.744;8.252;2023-07-31T12:45:54;2.33;;;1.17;;
45842;SDS011;31563;51.744;8.252;2023-07-31T12:48:22;1.88;;;1.20;;
45842;SDS011;31563;51.744;8.252;2023-07-31T12:50:50;2.97;;;1.10;;
45842;SDS011;31563;51.744;8.252;2023-07-31T12:53:20;2.28;;;1.10;;
45842;SDS011;31563;51.744;8.252;2023-07-31T12:55:47;1.27;;;1.08;;
45842;SDS011;31563;51.744;8.252;2023-07-31T12:58:16;2.30;;;1.30;;
45842;SDS011;31563;51.744;8.252;2023-07-31T13:00:44;1.58;;;0.93;;
45842;SDS011;31563;51.744;8.252;2023-07-31T13:03:12;1.92;;;1.20;;
45842;SDS011;31563;51.744;8.252;2023-07-31T13:05:40;1.58;;;1.00;;
45842;SDS011;31563;51.744;8.252;2023-07-31T13:08:08;1.45;;;0.70;;
45842;SDS011;31563;51.744;8.252;2023-07-31T13:10:37;1.58;;;1.08;;
45842;SDS011;31563;51.744;8.252;2023-07-31T13:13:05;1.63;;;0.90;;
45842;SDS011;31563;51.744;8.252;2023-07-31T13:15:33;1.40;;;1.00;;
45842;SDS011;31563;51.744;8.252;2023-07-31T13:18:01;1.33;;;1.10;;
45842;SDS011;31563;51.744;8.252;2023-07-31T13:20:29;1.27;;;0.80;;
45842;SDS011;31563;51.744;8.252;2023-07-31T13:22:57;1.08;;;0.80;;
45842;SDS011;31563;51.744;8.252;2023-07-31T13:25:25;1.27;;;0.95;;
45842;SDS011;31563;51.744;8.252;2023-07-31T13:27:55;2.10;;;0.88;;
45842;SDS011;31563;51.744;8.252;2023-07-31T13:30:26;1.20;;;0.90;;
45842;SDS011;31563;51.744;8.252;2023-07-31T13:32:54;2.03;;;1.35;;
45842;SDS011;31563;51.744;8.252;2023-07-31T13:35:22;2.10;;;1.20;;
45842;SDS011;31563;51.744;8.252;2023-07-31T13:37:50;2.83;;;1.00;;
45842;SDS011;31563;51.744;8.252;2023-07-31T13:40:18;1.50;;;1.10;;
45842;SDS011;31563;51.744;8.252;2023-07-31T13:42:46;1.55;;;0.70;;
45842;SDS011;31563;51.744;8.252;2023-07-31T13:45:15;1.48;;;0.90;;
45842;SDS011;31563;51.744;8.252;2023-07-31T13:47:43;2.05;;;0.93;;
45842;SDS011;31563;51.744;8.252;2023-07-31T13:50:11;3.90;;;0.98;;
45842;SDS011;31563;51.744;8.252;2023-07-31T13:52:39;1.35;;;1.10;;
45842;SDS011;31563;51.744;8.252;2023-07-31T13:55:07;1.88;;;0.95;;
45842;SDS011;31563;51.744;8.252;2023-07-31T13:57:35;1.75;;;0.70;;
45842;SDS011;31563;51.744;8.252;2023-07-31T14:00:04;1.48;;;0.90;;
45842;SDS011;31563;51.744;8.252;2023-07-31T14:02:34;3.22;;;1.20;;
45842;SDS011;31563;51.744;8.252;2023-07-31T14:05:02;1.55;;;0.85;;
45842;SDS011;31563;51.744;8.252;2023-07-31T14:07:31;2.97;;;1.02;;
45842;SDS011;31563;51.744;8.252;2023-07-31T14:09:59;1.42;;;0.95;;
45842;SDS011;31563;51.744;8.252;2023-07-31T14:12:27;1.02;;;0.77;;
45842;SDS011;31563;51.744;8.252;2023-07-31T14:15:08;1.48;;;1.10;;
45842;SDS011;31563;51.744;8.252;2023-07-31T14:17:38;3.25;;;1.00;;
45842;SDS011;31563;51.744;8.252;2023-07-31T14:20:07;2.33;;;1.30;;
45842;SDS011;31563;51.744;8.252;2023-07-31T14:22:37;1.25;;;0.82;;
45842;SDS011;31563;51.744;8.252;2023-07-31T14:25:05;1.23;;;0.67;;
45842;SDS011;31563;51.744;8.252;2023-07-31T14:27:36;1.45;;;0.90;;
45842;SDS011;31563;51.744;8.252;2023-07-31T14:30:06;1.50;;;0.80;;
45842;SDS011;31563;51.744;8.252;2023-07-31T14:32:34;2.78;;;0.95;;
45842;SDS011;31563;51.744;8.252;2023-07-31T14:35:04;2.45;;;0.98;;
45842;SDS011;31563;51.744;8.252;2023-07-31T14:37:39;2.38;;;1.05;;
45842;SDS011;31563;51.744;8.252;2023-07-31T14:40:07;2.35;;;0.88;;
45842;SDS011;31563;51.744;8.252;2023-07-31T14:42:37;1.70;;;0.90;;
45842;SDS011;31563;51.744;8.252;2023-07-31T14:45:06;1.58;;;0.93;;
45842;SDS011;31563;51.744;8.252;2023-07-31T14:47:36;1.52;;;0.95;;
45842;SDS011;31563;51.744;8.252;2023-07-31T14:50:06;4.00;;;1.10;;
45842;SDS011;31563;51.744;8.252;2023-07-31T14:52:34;1.88;;;0.98;;
45842;SDS011;31563;51.744;8.252;2023-07-31T14:55:02;1.73;;;1.05;;
45842;SDS011;31563;51.744;8.252;2023-07-31T14:57:31;2.92;;;1.40;;
45842;SDS011;31563;51.744;8.252;2023-07-31T14:59:59;2.80;;;1.30;;
45842;SDS011;31563;51.744;8.252;2023-07-31T15:02:26;2.97;;;1.30;;
45842;SDS011;31563;51.744;8.252;2023-07-31T15:04:54;2.10;;;1.13;;
45842;SDS011;31563;51.744;8.252;2023-07-31T15:07:24;2.88;;;1.13;;
45842;SDS011;31563;51.744;8.252;2023-07-31T15:09:52;3.60;;;1.20;;